DTTX

Sfax Thyna International Airport

Sfax, Tunisia
METAR DTTX 140000Z 20006KT CAVOK 11/05 Q1011 NOSIG
Observed Flight Rules
Dec-14 @ 00:00 UTC (56 minutes ago) Visual Flight Rules
Wind Visibility Clouds
200° at 6 knots 10,000+ meters
  • Clear skies
Temperatures Readings
Current 11°C / 52°F
Dewpoint 5°C / 41°F
Humidity 67%
Altimeter 29.85" Hg
Pressure 1011 hPa
Elevation 23
METAR DTTX 140000Z 20006KT CAVOK 11/05 Q1011 NOSIG
Observed Flight Rules
Dec-14 @ 00:00 UTC
(56 minutes ago)
VFR
Wind Visibility
200° at 6 knots 10,000+ meters
Clouds
  • Clear skies
Temperature Dewpoint
11°C / 52°F 5°C / 41°F
Humidity Altimeter Pressure
67% 29.85" Hg 1011 hPa